createdAt,value
2019-01-24T00:01:44.546Z,82.17
2019-01-24T00:04:16.892Z,81.50
2019-01-24T00:06:49.660Z,81.74
2019-01-24T00:09:22.154Z,81.94
2019-01-24T00:11:54.089Z,81.91
2019-01-24T00:14:27.383Z,82.11
2019-01-24T00:17:00.194Z,81.90
2019-01-24T00:19:32.672Z,82.27
2019-01-24T00:22:04.618Z,81.53
2019-01-24T00:24:36.016Z,81.68
2019-01-24T00:29:40.227Z,81.74
2019-01-24T00:32:11.096Z,81.95
2019-01-24T00:34:44.112Z,81.70
2019-01-24T00:37:15.338Z,81.68
2019-01-24T00:39:47.329Z,81.65
2019-01-24T00:42:18.185Z,81.75
2019-01-24T00:44:48.909Z,81.86
2019-01-24T00:47:18.710Z,82.13
2019-01-24T00:49:54.644Z,81.72
2019-01-24T00:52:26.212Z,81.80
2019-01-24T00:54:58.978Z,81.73
2019-01-24T00:57:30.151Z,81.64
2019-01-24T01:00:01.417Z,80.62
2019-01-24T01:02:33.582Z,79.69
2019-01-24T01:05:06.480Z,79.84
2019-01-24T01:07:39.312Z,80.76
2019-01-24T01:10:11.447Z,81.02
2019-01-24T01:12:43.574Z,81.40
2019-01-24T01:15:21.037Z,81.65
2019-01-24T01:17:52.178Z,81.05
2019-01-24T01:20:23.394Z,81.35
2019-01-24T01:22:54.478Z,81.37
2019-01-24T01:25:26.266Z,80.18
2019-01-24T01:27:57.744Z,80.32
2019-01-24T01:30:28.637Z,80.35
2019-01-24T01:33:01.299Z,80.12
2019-01-24T01:35:34.099Z,80.55
2019-01-24T01:38:05.242Z,80.84
2019-01-24T01:40:36.375Z,80.62
2019-01-24T01:43:07.447Z,80.53
2019-01-24T01:45:39.590Z,80.28
2019-01-24T01:48:11.885Z,80.81
2019-01-24T01:50:43.396Z,80.79
2019-01-24T01:53:16.918Z,80.89
2019-01-24T01:55:48.882Z,81.09
2019-01-24T01:58:19.614Z,80.70
2019-01-24T02:00:51.645Z,80.15
2019-01-24T02:03:23.541Z,80.79
2019-01-24T02:05:57.446Z,80.87
2019-01-24T02:08:30.269Z,80.50
2019-01-24T02:11:02.450Z,80.14
2019-01-24T02:13:32.929Z,80.07
2019-01-24T02:16:07.623Z,79.99
2019-01-24T02:18:39.788Z,79.96
2019-01-24T02:21:12.515Z,79.49
2019-01-24T02:23:43.185Z,80.10
2019-01-24T02:26:17.148Z,80.04
2019-01-24T02:28:48.702Z,80.51
2019-01-24T02:31:22.456Z,80.52
2019-01-24T02:33:52.806Z,80.71
2019-01-24T02:36:23.507Z,80.94
2019-01-24T02:38:54.832Z,80.60
2019-01-24T02:41:28.652Z,80.34
2019-01-24T02:44:02.634Z,79.87
2019-01-24T02:46:37.150Z,79.14
2019-01-24T02:49:09.515Z,79.70
2019-01-24T02:51:41.089Z,80.10
2019-01-24T02:54:12.735Z,80.28
2019-01-24T02:56:43.395Z,80.43
2019-01-24T02:59:18.163Z,79.96
2019-01-24T03:01:49.300Z,80.04
2019-01-24T03:04:20.784Z,79.84
2019-01-24T03:06:53.814Z,79.94
2019-01-24T03:09:25.496Z,80.20
2019-01-24T03:11:56.613Z,79.97
2019-01-24T03:14:28.441Z,79.90
2019-01-24T03:17:01.160Z,80.20
2019-01-24T03:19:33.045Z,80.37
2019-01-24T03:22:06.387Z,80.52
2019-01-24T03:24:38.847Z,80.48
2019-01-24T03:27:10.989Z,80.67
2019-01-24T03:29:41.787Z,81.14
2019-01-24T03:32:13.226Z,80.47
2019-01-24T03:34:43.958Z,80.62
2019-01-24T03:37:17.506Z,80.80
2019-01-24T03:39:50.252Z,80.62
2019-01-24T03:42:21.154Z,80.51
2019-01-24T03:44:51.954Z,80.67
2019-01-24T03:47:23.282Z,80.85
2019-01-24T03:49:56.052Z,80.47
2019-01-24T03:52:27.088Z,80.53
2019-01-24T03:54:57.930Z,80.54
2019-01-24T03:57:29.604Z,80.85
2019-01-24T04:00:00.572Z,80.65
2019-01-24T04:02:32.076Z,80.74
2019-01-24T04:05:11.832Z,80.41
2019-01-24T04:07:39.758Z,80.54
2019-01-24T04:10:13.790Z,80.35
2019-01-24T04:12:45.610Z,80.50
2019-01-24T04:15:18.779Z,80.62
2019-01-24T04:17:50.819Z,80.03
2019-01-24T04:20:21.532Z,80.17
2019-01-24T04:22:54.989Z,80.67
2019-01-24T04:25:29.450Z,80.09
2019-01-24T04:28:00.020Z,80.39
2019-01-24T04:30:33.817Z,80.50
2019-01-24T04:33:08.198Z,80.71
2019-01-24T04:35:39.785Z,80.75
2019-01-24T04:38:11.125Z,80.55
2019-01-24T04:40:43.785Z,80.01
2019-01-24T04:43:14.818Z,80.13
2019-01-24T04:45:46.514Z,79.78
2019-01-24T04:48:19.455Z,80.21
2019-01-24T04:50:51.530Z,80.07
2019-01-24T04:53:24.057Z,80.17
2019-01-24T04:55:56.552Z,79.73
2019-01-24T04:58:28.183Z,79.83
2019-01-24T05:01:01.056Z,79.70
2019-01-24T05:03:33.048Z,79.80
2019-01-24T05:06:04.340Z,79.75
2019-01-24T05:08:38.610Z,79.62
2019-01-24T05:11:11.874Z,79.03
2019-01-24T05:13:42.930Z,79.65
2019-01-24T05:16:14.084Z,79.64
2019-01-24T05:18:47.112Z,79.34
2019-01-24T05:21:18.095Z,79.25
2019-01-24T05:23:51.916Z,79.28
2019-01-24T05:26:22.976Z,78.84
2019-01-24T05:28:54.025Z,78.81
2019-01-24T05:31:24.564Z,78.70
2019-01-24T05:33:56.984Z,78.65
2019-01-24T05:36:29.802Z,78.82
2019-01-24T05:39:02.166Z,78.89
2019-01-24T05:41:33.173Z,78.86
2019-01-24T05:44:05.722Z,78.46
2019-01-24T05:46:37.382Z,78.46
2019-01-24T05:49:11.131Z,78.23
2019-01-24T05:51:44.110Z,77.64
2019-01-24T05:54:18.696Z,77.84
2019-01-24T05:56:49.877Z,77.88
2019-01-24T05:59:24.233Z,77.29
2019-01-24T06:01:56.165Z,77.44
2019-01-24T06:04:29.299Z,77.74
2019-01-24T06:07:01.547Z,77.10
2019-01-24T06:09:33.525Z,76.72
2019-01-24T06:12:05.817Z,77.33
2019-01-24T06:14:36.867Z,77.34
2019-01-24T06:17:11.038Z,77.19
2019-01-24T06:19:42.289Z,76.67
2019-01-24T06:22:31.779Z,77.02
2019-01-24T06:25:41.902Z,76.58
2019-01-24T06:32:03.308Z,76.87
2019-01-24T06:34:38.057Z,76.26
2019-01-24T06:37:11.443Z,75.97
2019-01-24T06:39:47.838Z,76.57
2019-01-24T06:42:45.537Z,76.74
2019-01-24T06:45:39.211Z,76.91
2019-01-24T06:48:18.428Z,76.42
2019-01-24T06:51:18.177Z,76.66
2019-01-24T06:53:59.947Z,77.23
2019-01-24T06:56:40.611Z,77.49
2019-01-24T06:59:48.637Z,75.30
2019-01-24T07:02:55.971Z,74.71
2019-01-24T07:05:37.000Z,74.16
2019-01-24T07:08:14.396Z,74.35
2019-01-24T07:10:52.453Z,74.72
2019-01-24T07:13:27.522Z,75.30
2019-01-24T07:16:05.725Z,74.89
2019-01-24T07:18:56.801Z,75.04
2019-01-24T07:21:47.113Z,75.20
2019-01-24T07:24:28.884Z,75.12
2019-01-24T07:27:05.322Z,75.12
2019-01-24T07:29:55.626Z,75.48
2019-01-24T07:32:36.503Z,75.86
2019-01-24T07:35:40.129Z,75.73
2019-01-24T07:38:38.537Z,75.64
2019-01-24T07:41:15.258Z,74.79
2019-01-24T07:43:51.064Z,74.94
2019-01-24T07:46:23.347Z,75.26
2019-01-24T07:52:34.359Z,74.48
2019-01-24T07:58:59.939Z,73.39
2019-01-24T08:01:30.842Z,73.85
2019-01-24T08:04:04.487Z,74.10
2019-01-24T08:06:38.093Z,73.88
2019-01-24T08:09:10.983Z,74.00
2019-01-24T08:11:44.221Z,73.62
2019-01-24T08:14:17.252Z,74.48
2019-01-24T08:16:47.376Z,73.78
2019-01-24T08:19:19.068Z,73.84
2019-01-24T08:21:52.242Z,73.33
2019-01-24T08:24:24.469Z,73.10
2019-01-24T08:26:58.395Z,73.12
2019-01-24T08:29:29.642Z,73.43
2019-01-24T08:32:01.043Z,72.21
2019-01-24T08:34:35.076Z,72.03
2019-01-24T08:37:09.173Z,71.06
2019-01-24T08:39:43.861Z,71.80
2019-01-24T08:42:18.121Z,72.10
2019-01-24T08:44:50.081Z,71.30
2019-01-24T08:47:21.777Z,71.45
2019-01-24T08:49:54.804Z,71.09
2019-01-24T08:52:28.509Z,70.58
2019-01-24T08:55:01.131Z,69.76
2019-01-24T08:57:32.151Z,70.30
2019-01-24T09:00:03.536Z,70.81
2019-01-24T09:02:35.145Z,70.91
2019-01-24T09:05:10.077Z,69.82
2019-01-24T09:07:43.653Z,69.80
2019-01-24T09:10:33.790Z,70.01
2019-01-24T09:13:15.002Z,69.29
2019-01-24T09:15:47.469Z,69.60
2019-01-24T09:18:20.525Z,69.93
2019-01-24T09:20:53.257Z,69.70
2019-01-24T09:23:25.083Z,69.89
2019-01-24T09:26:11.919Z,70.02
2019-01-24T09:28:45.398Z,69.69
2019-01-24T09:31:16.495Z,68.36
2019-01-24T09:33:49.630Z,68.49
2019-01-24T09:36:29.195Z,68.42
2019-01-24T09:38:58.594Z,69.01
2019-01-24T09:41:32.859Z,68.76
2019-01-24T09:44:05.146Z,69.14
2019-01-24T09:46:39.210Z,69.32
2019-01-24T09:49:12.514Z,69.27
2019-01-24T09:51:45.193Z,68.79
2019-01-24T09:54:18.029Z,68.44
2019-01-24T09:56:53.241Z,69.25
2019-01-24T09:59:25.978Z,69.60
2019-01-24T10:01:58.590Z,69.86
2019-01-24T10:04:32.670Z,69.80
2019-01-24T10:07:06.625Z,68.57
2019-01-24T10:09:38.726Z,68.24
2019-01-24T10:12:11.449Z,69.08
2019-01-24T10:14:43.191Z,69.26
2019-01-24T10:17:16.164Z,69.78
2019-01-24T10:19:50.881Z,69.64
2019-01-24T10:22:24.350Z,69.00
2019-01-24T10:24:58.802Z,69.30
2019-01-24T10:27:36.717Z,69.62
2019-01-24T10:30:14.500Z,69.43
2019-01-24T10:32:48.111Z,69.95
2019-01-24T10:35:20.450Z,69.54
2019-01-24T10:37:53.149Z,69.59
2019-01-24T10:40:30.964Z,69.44
2019-01-24T10:43:02.960Z,69.57
2019-01-24T10:45:36.295Z,69.47
2019-01-24T10:48:08.919Z,68.43
2019-01-24T10:50:41.995Z,68.65
2019-01-24T10:53:17.077Z,68.73
2019-01-24T10:55:48.324Z,69.36
2019-01-24T10:58:20.635Z,68.82
2019-01-24T11:00:56.032Z,69.00
2019-01-24T11:03:29.627Z,68.72
2019-01-24T11:06:02.339Z,69.70
2019-01-24T11:08:37.298Z,69.63
2019-01-24T11:11:08.572Z,68.83
2019-01-24T11:13:42.331Z,68.49
2019-01-24T11:16:14.763Z,68.63
2019-01-24T11:18:49.352Z,69.06
2019-01-24T11:21:23.590Z,68.94
2019-01-24T11:23:59.745Z,69.06
2019-01-24T11:26:31.964Z,68.97
2019-01-24T11:29:02.681Z,69.08
2019-01-24T11:31:34.231Z,69.32
2019-01-24T11:34:07.439Z,68.98
2019-01-24T11:36:38.591Z,68.75
2019-01-24T11:39:11.020Z,69.60
2019-01-24T11:41:45.582Z,68.93
2019-01-24T11:44:18.625Z,68.79
2019-01-24T11:46:51.771Z,68.83
2019-01-24T11:49:24.943Z,68.73
2019-01-24T11:51:55.760Z,68.35
2019-01-24T11:54:28.192Z,68.55
2019-01-24T11:57:02.472Z,68.89
2019-01-24T11:59:37.273Z,69.23
2019-01-24T12:02:12.585Z,68.97
2019-01-24T12:04:44.698Z,68.67
2019-01-24T12:07:17.479Z,69.31
2019-01-24T12:09:50.379Z,68.78
2019-01-24T12:12:24.100Z,69.07
2019-01-24T12:14:56.002Z,69.86
2019-01-24T12:17:28.848Z,69.41
2019-01-24T12:20:01.496Z,69.85
2019-01-24T12:22:35.215Z,69.79
2019-01-24T12:25:09.572Z,69.91
2019-01-24T12:27:45.321Z,69.54
2019-01-24T12:30:23.063Z,69.29
2019-01-24T12:32:57.790Z,68.66
2019-01-24T12:35:29.915Z,68.86
2019-01-24T12:38:04.435Z,69.11
2019-01-24T12:40:37.443Z,69.03
2019-01-24T12:43:09.524Z,69.01
2019-01-24T12:45:44.917Z,68.66
2019-01-24T12:48:20.234Z,68.90
2019-01-24T12:50:53.872Z,68.99
2019-01-24T12:53:30.616Z,68.85
2019-01-24T12:56:06.789Z,68.77
2019-01-24T12:58:39.303Z,68.36
2019-01-24T13:01:11.473Z,69.10
2019-01-24T13:03:46.189Z,68.94
2019-01-24T13:06:20.883Z,68.73
2019-01-24T13:08:54.666Z,69.44
2019-01-24T13:11:28.898Z,68.71
2019-01-24T13:14:03.190Z,68.68
2019-01-24T13:16:38.864Z,68.67
2019-01-24T13:19:12.280Z,69.51
2019-01-24T13:21:44.096Z,69.43
2019-01-24T13:24:16.089Z,70.52
2019-01-24T13:26:47.738Z,68.44
2019-01-24T13:29:20.669Z,68.08
2019-01-24T13:31:53.963Z,68.29
2019-01-24T13:34:25.752Z,68.57
2019-01-24T13:36:58.334Z,68.04
2019-01-24T13:39:29.550Z,67.46
2019-01-24T13:42:04.846Z,67.80
2019-01-24T13:44:37.938Z,68.17
2019-01-24T13:47:09.124Z,67.88
2019-01-24T13:49:41.201Z,68.19
2019-01-24T13:52:12.645Z,67.88
2019-01-24T13:54:44.016Z,68.02
2019-01-24T13:57:21.946Z,68.42
2019-01-24T13:59:55.812Z,68.59
2019-01-24T14:02:28.852Z,68.61
2019-01-24T14:05:00.563Z,68.62
2019-01-24T14:07:33.910Z,68.57
2019-01-24T14:10:08.203Z,68.22
2019-01-24T14:12:42.631Z,68.16
2019-01-24T14:15:19.360Z,68.14
2019-01-24T14:17:56.504Z,68.29
2019-01-24T14:20:28.698Z,67.95
2019-01-24T14:23:03.496Z,68.89
2019-01-24T14:25:39.462Z,68.78
2019-01-24T14:28:14.038Z,68.20
2019-01-24T14:30:46.237Z,68.81
2019-01-24T14:33:19.709Z,68.58
2019-01-24T14:35:51.678Z,68.90
2019-01-24T14:38:24.788Z,69.26
2019-01-24T14:40:59.969Z,69.42
2019-01-24T14:43:32.970Z,69.28
2019-01-24T14:46:07.492Z,69.51
2019-01-24T14:48:41.885Z,68.63
2019-01-24T14:51:16.071Z,68.92
2019-01-24T14:53:47.219Z,69.38
2019-01-24T14:56:20.826Z,69.34
2019-01-24T14:58:52.611Z,69.96
2019-01-24T15:01:25.075Z,68.68
2019-01-24T15:03:59.248Z,68.48
2019-01-24T15:06:31.557Z,68.35
2019-01-24T15:09:06.839Z,68.59
2019-01-24T15:11:39.078Z,69.04
2019-01-24T15:14:13.717Z,69.31
2019-01-24T15:16:45.083Z,69.53
2019-01-24T15:19:17.593Z,69.50
2019-01-24T15:21:48.798Z,69.76
2019-01-24T15:24:24.153Z,69.46
2019-01-24T15:26:57.272Z,69.47
2019-01-24T15:29:29.395Z,69.80
2019-01-24T15:32:03.209Z,69.43
2019-01-24T15:34:37.074Z,69.49
2019-01-24T15:37:07.946Z,69.94
2019-01-24T15:39:41.008Z,69.01
2019-01-24T15:42:15.548Z,69.52
2019-01-24T15:44:47.657Z,70.03
2019-01-24T15:47:20.431Z,70.47
2019-01-24T15:49:55.454Z,70.25
2019-01-24T15:52:26.879Z,69.89
2019-01-24T15:55:00.428Z,69.58
2019-01-24T15:57:33.541Z,69.13
2019-01-24T16:00:07.288Z,68.93
2019-01-24T16:02:39.524Z,69.10
2019-01-24T16:05:13.260Z,69.31
2019-01-24T16:07:45.386Z,69.64
2019-01-24T16:10:20.272Z,68.95
2019-01-24T16:12:55.118Z,69.50
2019-01-24T16:15:40.855Z,69.75
2019-01-24T16:18:13.779Z,70.08
2019-01-24T16:20:45.693Z,70.19
2019-01-24T16:23:23.205Z,70.75
2019-01-24T16:25:55.465Z,70.95
2019-01-24T16:28:30.287Z,70.78
2019-01-24T16:31:02.599Z,70.65
2019-01-24T16:33:35.493Z,70.47
2019-01-24T16:36:08.647Z,69.68
2019-01-24T16:38:40.060Z,68.49
2019-01-24T16:41:12.799Z,68.48
2019-01-24T16:43:55.677Z,68.81
2019-01-24T16:46:28.369Z,68.78
2019-01-24T16:49:03.502Z,69.33
2019-01-24T16:51:35.210Z,69.16
2019-01-24T16:54:07.264Z,69.30
2019-01-24T16:56:41.234Z,69.03
2019-01-24T16:59:13.528Z,69.23
2019-01-24T17:01:45.809Z,69.51
2019-01-24T17:04:20.072Z,68.71
2019-01-24T17:06:53.011Z,68.96
2019-01-24T17:09:24.492Z,68.80
2019-01-24T17:11:57.300Z,68.68
2019-01-24T17:14:30.645Z,68.62
2019-01-24T17:17:03.069Z,68.53
2019-01-24T17:19:35.364Z,68.49
2019-01-24T17:22:09.052Z,68.44
2019-01-24T17:24:41.569Z,68.90
2019-01-24T17:27:17.723Z,68.29
2019-01-24T17:29:49.617Z,68.29
2019-01-24T17:32:26.614Z,68.48
2019-01-24T17:35:00.175Z,67.49
2019-01-24T17:37:35.261Z,67.16
2019-01-24T17:40:14.061Z,68.52
2019-01-24T17:42:46.436Z,68.95
2019-01-24T17:45:19.195Z,69.54
2019-01-24T17:47:52.597Z,69.10
2019-01-24T17:50:25.887Z,69.08
2019-01-24T17:52:59.316Z,69.10
2019-01-24T17:55:34.755Z,68.75
2019-01-24T17:58:11.744Z,69.87
2019-01-24T18:00:50.791Z,67.71
2019-01-24T18:03:24.833Z,68.76
2019-01-24T18:05:56.238Z,69.31
2019-01-24T18:08:31.371Z,69.92
2019-01-24T18:18:27.296Z,71.74
2019-01-24T18:24:25.318Z,71.44
2019-01-24T18:27:07.364Z,71.51
2019-01-24T18:29:46.235Z,71.83
2019-01-24T18:32:17.720Z,72.33
2019-01-24T18:34:50.508Z,71.95
2019-01-24T18:38:04.328Z,71.98
2019-01-24T18:40:37.597Z,72.04
2019-01-24T18:43:11.681Z,72.22
2019-01-24T18:45:57.180Z,72.21
2019-01-24T18:48:28.531Z,71.82
2019-01-24T18:51:00.766Z,71.91
2019-01-24T18:53:34.875Z,72.01
2019-01-24T18:56:12.057Z,71.75
2019-01-24T18:58:43.372Z,71.88
2019-01-24T19:01:14.213Z,72.00
2019-01-24T19:03:45.571Z,71.50
2019-01-24T19:06:24.626Z,71.44
2019-01-24T19:09:05.486Z,71.48
2019-01-24T19:11:41.107Z,71.38
2019-01-24T19:14:12.638Z,71.55
2019-01-24T19:16:58.931Z,71.73
2019-01-24T19:19:31.318Z,71.84
2019-01-24T19:22:05.135Z,71.75
2019-01-24T19:24:37.010Z,72.00
2019-01-24T19:27:09.925Z,72.12
2019-01-24T19:29:41.131Z,71.95
2019-01-24T19:32:14.514Z,71.90
2019-01-24T19:34:48.856Z,72.20
2019-01-24T19:37:24.735Z,72.80
2019-01-24T19:40:00.607Z,72.95
2019-01-24T19:43:03.710Z,72.42
2019-01-24T19:45:37.095Z,71.86
2019-01-24T19:48:08.344Z,71.87
2019-01-24T19:50:43.944Z,71.72
2019-01-24T19:53:16.426Z,71.14
2019-01-24T19:55:51.776Z,71.04
2019-01-24T19:58:24.276Z,71.43
2019-01-24T20:00:56.399Z,72.17
2019-01-24T20:03:50.572Z,71.81
2019-01-24T20:06:27.519Z,72.20
2019-01-24T20:09:10.238Z,71.34
2019-01-24T20:11:42.361Z,72.13
2019-01-24T20:14:16.053Z,72.08
2019-01-24T20:16:48.992Z,71.54
2019-01-24T20:19:22.952Z,71.25
2019-01-24T20:22:16.117Z,71.66
2019-01-24T20:24:39.663Z,72.03
2019-01-24T20:27:11.715Z,71.75
2019-01-24T20:29:43.204Z,71.99
2019-01-24T20:32:15.641Z,71.75
2019-01-24T20:34:46.697Z,72.27
2019-01-24T20:37:18.438Z,72.40
2019-01-24T20:39:49.672Z,71.96
2019-01-24T20:42:21.388Z,71.86
2019-01-24T20:44:52.199Z,72.36
2019-01-24T20:47:25.593Z,72.32
2019-01-24T20:49:56.723Z,71.44
2019-01-24T20:52:28.372Z,71.71
2019-01-24T20:54:58.814Z,72.32
2019-01-24T20:57:30.759Z,71.75
2019-01-24T21:00:02.378Z,72.02
2019-01-24T21:02:35.175Z,71.68
2019-01-24T21:05:10.623Z,71.19
2019-01-24T21:07:42.300Z,71.45
2019-01-24T21:10:16.662Z,71.09
2019-01-24T21:12:48.603Z,71.35
2019-01-24T21:15:20.465Z,71.21
2019-01-24T21:17:51.764Z,71.35
2019-01-24T21:20:24.622Z,71.17
2019-01-24T21:22:56.336Z,71.16
2019-01-24T21:25:27.531Z,71.04
2019-01-24T21:27:58.462Z,70.79
2019-01-24T21:30:36.051Z,71.93
2019-01-24T21:33:07.615Z,72.18
2019-01-24T21:35:39.453Z,71.69
2019-01-24T21:38:11.096Z,72.05
2019-01-24T21:40:41.569Z,71.27
2019-01-24T21:43:16.333Z,71.17
2019-01-24T21:45:48.646Z,71.00
2019-01-24T21:48:21.244Z,71.42
2019-01-24T21:50:55.438Z,70.88
2019-01-24T21:53:26.405Z,70.60
2019-01-24T21:55:56.815Z,71.54
2019-01-24T21:58:27.619Z,70.96
2019-01-24T22:00:58.227Z,71.13
2019-01-24T22:06:18.217Z,70.47
2019-01-24T22:08:52.344Z,70.52
2019-01-24T22:11:24.731Z,70.94
2019-01-24T22:13:57.763Z,71.49
2019-01-24T22:16:30.362Z,71.04
2019-01-24T22:19:02.973Z,71.73
2019-01-24T22:21:36.533Z,71.32
2019-01-24T22:24:09.574Z,71.04
2019-01-24T22:26:43.125Z,70.66
2019-01-24T22:29:15.916Z,70.49
2019-01-24T22:31:48.206Z,70.87
2019-01-24T22:34:22.273Z,71.08
2019-01-24T22:36:56.248Z,70.78
2019-01-24T22:39:28.501Z,70.76
2019-01-24T22:42:00.181Z,70.87
2019-01-24T22:44:33.321Z,71.05
2019-01-24T22:47:05.687Z,69.79
2019-01-24T22:49:40.199Z,70.71
2019-01-24T22:52:11.117Z,70.80
2019-01-24T22:54:44.670Z,70.40
2019-01-24T22:57:16.592Z,70.28
2019-01-24T22:59:48.264Z,70.58
2019-01-24T23:02:21.206Z,70.02
2019-01-24T23:04:52.272Z,69.93
2019-01-24T23:07:25.492Z,69.99
2019-01-24T23:09:57.536Z,70.83
2019-01-24T23:12:31.090Z,70.37
2019-01-24T23:15:03.976Z,71.07
2019-01-24T23:17:34.379Z,70.87
2019-01-24T23:20:09.102Z,70.38
2019-01-24T23:22:40.558Z,70.22
2019-01-24T23:25:15.807Z,70.04
2019-01-24T23:27:48.568Z,70.72
2019-01-24T23:30:23.958Z,70.86
2019-01-24T23:32:56.556Z,70.30
2019-01-24T23:35:27.817Z,70.51
2019-01-24T23:38:00.369Z,69.94
2019-01-24T23:40:32.316Z,69.59
2019-01-24T23:43:06.119Z,70.73
2019-01-24T23:45:39.338Z,70.79
2019-01-24T23:48:11.793Z,70.00
2019-01-24T23:50:43.426Z,69.89
2019-01-24T23:53:16.341Z,70.23
2019-01-24T23:55:48.638Z,70.29
2019-01-24T23:58:23.005Z,70.36
